Time;durP1;ratioP1;P1;durP2;ratioP2;P2;SDS_P1;SDS_P2;PMS_P1;PMS_P2;Temp;Humidity;BMP_temperature;BMP_pressure;BME280_temperature;BME280_humidity;BME280_pressure;Samples;Min_cycle;Max_cycle;Signal;HPM_P1;HPM_P2
2022/09/15 00:00:56;;;;;;;6.88;1.75;;;;;;;11.99;100.00;100505.25;4956500;28;20050;-87
2022/09/15 00:03:23;;;;;;;4.43;1.60;;;;;;;12.15;100.00;100508.88;4973471;28;20050;-88
2022/09/15 00:05:53;;;;;;;7.50;1.63;;;;;;;12.11;100.00;100521.28;4972756;28;20057;-86
2022/09/15 00:08:20;;;;;;;7.93;1.80;;;;;;;12.01;100.00;100511.28;4955933;28;20460;-88
2022/09/15 00:10:49;;;;;;;8.65;1.90;;;;;;;11.67;100.00;100508.44;4973225;28;20059;-88
2022/09/15 00:13:15;;;;;;;9.68;1.38;;;;;;;11.66;100.00;100521.59;4956410;28;20046;-89
2022/09/15 00:15:42;;;;;;;8.88;2.17;;;;;;;11.41;100.00;100472.91;4973093;28;20046;-88
2022/09/15 00:18:09;;;;;;;8.65;1.48;;;;;;;11.51;100.00;100471.56;4970122;28;20548;-88
2022/09/15 00:20:40;;;;;;;6.13;1.60;;;;;;;11.78;100.00;100518.44;4972042;28;20059;-88
2022/09/15 00:23:07;;;;;;;4.32;1.65;;;;;;;11.66;100.00;100529.47;4942820;28;20039;-88
2022/09/15 00:25:34;;;;;;;15.90;1.73;;;;;;;11.77;100.00;100517.59;4956222;28;20530;-88
2022/09/15 00:28:01;;;;;;;6.68;1.40;;;;;;;12.02;100.00;100526.09;4964757;28;20051;-87
2022/09/15 00:30:27;;;;;;;8.10;1.80;;;;;;;11.80;100.00;100528.84;4955911;28;20484;-88
2022/09/15 00:32:54;;;;;;;9.63;1.70;;;;;;;11.75;100.00;100515.94;4953004;28;20054;-88
2022/09/15 00:35:21;;;;;;;5.97;1.60;;;;;;;11.98;100.00;100521.94;4973297;28;20401;-88
2022/09/15 00:37:47;;;;;;;8.15;1.65;;;;;;;11.86;100.00;100526.78;4949708;28;20086;-89
2022/09/15 00:40:16;;;;;;;10.20;1.98;;;;;;;11.76;100.00;100515.88;4956139;28;20134;-88
2022/09/15 00:42:43;;;;;;;5.28;1.55;;;;;;;11.75;100.00;100505.44;4947802;28;20116;-89
2022/09/15 00:45:15;;;;;;;7.18;2.13;;;;;;;11.89;100.00;100525.78;4955377;28;20508;-87
2022/09/15 00:47:43;;;;;;;14.23;2.05;;;;;;;11.82;100.00;100530.47;4966841;28;20102;-87
2022/09/15 00:50:17;;;;;;;9.32;1.50;;;;;;;11.67;100.00;100526.78;4970560;28;20050;-86
2022/09/15 00:52:49;;;;;;;6.65;2.03;;;;;;;11.63;100.00;100498.13;4966074;28;20059;-88
2022/09/15 00:55:30;;;;;;;7.97;1.83;;;;;;;11.81;100.00;100520.91;4953194;28;20473;-87
2022/09/15 00:58:05;;;;;;;5.88;2.63;;;;;;;11.86;100.00;100541.66;4946572;28;20489;-87
2022/09/15 01:00:32;;;;;;;10.40;2.13;;;;;;;11.96;100.00;100538.56;4970012;28;20042;-86
2022/09/15 01:03:00;;;;;;;7.20;1.73;;;;;;;12.10;100.00;100535.31;4955550;28;20098;-87
2022/09/15 01:05:37;;;;;;;6.15;1.40;;;;;;;12.03;100.00;100527.81;4955379;28;20051;-87
2022/09/15 01:08:08;;;;;;;7.88;1.80;;;;;;;11.85;100.00;100545.22;4946562;29;20055;-87
2022/09/15 01:10:38;;;;;;;6.30;1.65;;;;;;;11.92;100.00;100542.28;4968393;28;20099;-87
2022/09/15 01:13:12;;;;;;;4.85;1.40;;;;;;;12.09;100.00;100538.88;4943379;28;20058;-86
2022/09/15 01:15:56;;;;;;;6.47;1.58;;;;;;;12.00;100.00;100539.28;4955272;28;20109;-86
2022/09/15 01:18:23;;;;;;;7.18;2.33;;;;;;;11.98;100.00;100538.50;4959929;28;20713;-86
2022/09/15 01:20:53;;;;;;;5.60;1.38;;;;;;;11.79;100.00;100541.09;4955160;28;20131;-86
2022/09/15 01:23:31;;;;;;;8.90;2.08;;;;;;;11.85;100.00;100538.19;4963163;28;20050;-86
2022/09/15 01:26:18;;;;;;;7.20;1.98;;;;;;;11.71;100.00;100535.38;4954405;28;20055;-86
2022/09/15 01:29:24;;;;;;;7.00;1.60;;;;;;;11.94;100.00;100536.97;4967819;28;20055;-86
2022/09/15 01:34:59;;;;;;;10.68;1.92;;;;;;;11.54;100.00;100529.13;4976313;28;20109;-87
2022/09/15 01:37:31;;;;;;;11.18;2.15;;;;;;;11.34;100.00;100548.34;4957775;28;20102;-87
2022/09/15 01:40:00;;;;;;;5.43;1.63;;;;;;;11.60;100.00;100541.09;4957443;28;20050;-86
2022/09/15 01:42:29;;;;;;;5.10;1.30;;;;;;;11.74;100.00;100538.69;4971142;28;20097;-86
2022/09/15 01:45:10;;;;;;;10.10;1.67;;;;;;;11.70;100.00;100538.91;4976045;28;20102;-86
2022/09/15 01:47:38;;;;;;;7.30;1.40;;;;;;;11.32;100.00;100523.97;4945587;28;20778;-86
2022/09/15 01:50:10;;;;;;;7.15;1.50;;;;;;;11.75;100.00;100552.66;4972745;28;20461;-86
2022/09/15 01:52:41;;;;;;;10.13;1.70;;;;;;;11.68;100.00;100549.44;4966085;28;20051;-86
2022/09/15 01:55:37;;;;;;;6.70;1.80;;;;;;;11.57;100.00;100541.22;4955733;28;20054;-86
2022/09/15 01:58:04;;;;;;;9.20;1.67;;;;;;;11.58;100.00;100559.50;4958007;28;20055;-87
2022/09/15 02:00:34;;;;;;;9.80;1.80;;;;;;;11.36;100.00;100541.25;4953863;29;20491;-86
2022/09/15 02:03:10;;;;;;;6.75;1.77;;;;;;;11.67;100.00;100541.66;4950802;28;20054;-86
2022/09/15 02:05:43;;;;;;;11.23;1.80;;;;;;;11.66;100.00;100530.31;4957743;28;20050;-86
2022/09/15 02:08:27;;;;;;;4.90;1.40;;;;;;;11.66;100.00;100540.81;4952283;28;20062;-86
2022/09/15 02:11:08;;;;;;;5.68;1.60;;;;;;;11.51;100.00;100544.97;4958611;28;20422;-86
2022/09/15 02:14:02;;;;;;;9.57;2.03;;;;;;;11.43;100.00;100548.84;4965601;28;20101;-86
2022/09/15 02:16:33;;;;;;;7.57;1.65;;;;;;;11.34;100.00;100537.00;4952025;28;20085;-86
2022/09/15 02:19:10;;;;;;;6.40;1.67;;;;;;;11.40;100.00;100553.31;4948599;28;20405;-87
2022/09/15 02:21:39;;;;;;;4.93;1.40;;;;;;;11.41;100.00;100543.69;4957998;28;20054;-86
2022/09/15 02:24:13;;;;;;;7.95;1.90;;;;;;;11.37;100.00;100542.13;4958555;28;20050;-87
2022/09/15 02:26:40;;;;;;;;;;;;;;;11.36;100.00;100543.88;4957348;28;20485;-86
2022/09/15 02:29:13;;;;;;;7.40;1.70;;;;;;;11.26;100.00;100545.22;4957393;28;19926;-86
2022/09/15 02:31:41;;;;;;;9.45;2.85;;;;;;;11.21;100.00;100555.88;4956892;28;20051;-86
2022/09/15 02:34:18;;;;;;;7.22;1.58;;;;;;;11.04;100.00;100528.72;4957546;28;20042;-86
2022/09/15 02:36:46;;;;;;;7.82;2.15;;;;;;;11.30;100.00;100535.44;4973780;28;20465;-86
2022/09/15 02:39:18;;;;;;;6.03;1.60;;;;;;;11.31;100.00;100551.06;4957810;28;20124;-86
2022/09/15 02:41:45;;;;;;;12.07;1.88;;;;;;;11.35;100.00;100547.44;4969446;28;20122;-87
2022/09/15 02:44:12;;;;;;;8.05;1.60;;;;;;;11.18;100.00;100550.78;4949047;28;20121;-86
2022/09/15 02:46:39;;;;;;;6.60;1.45;;;;;;;11.19;100.00;100543.75;4938875;28;20055;-87
2022/09/15 02:49:06;;;;;;;6.40;1.58;;;;;;;11.37;100.00;100558.69;4973763;28;20109;-87
2022/09/15 02:51:33;;;;;;;7.50;1.63;;;;;;;11.29;100.00;100550.31;4974791;28;20651;-87
2022/09/15 02:54:00;;;;;;;5.93;1.70;;;;;;;11.23;100.00;100550.59;4974506;28;20453;-87
2022/09/15 02:56:26;;;;;;;7.85;2.55;;;;;;;11.26;100.00;100560.94;4950597;28;20051;-87
2022/09/15 02:58:53;;;;;;;4.32;1.50;;;;;;;11.29;100.00;100554.69;4973405;28;20050;-87
2022/09/15 03:01:25;;;;;;;7.40;1.38;;;;;;;11.34;100.00;100568.47;4957276;28;20042;-87
2022/09/15 03:03:52;;;;;;;7.47;1.63;;;;;;;11.19;100.00;100551.59;4970011;28;20063;-86
2022/09/15 03:06:20;;;;;;;4.30;1.10;;;;;;;11.15;100.00;100548.28;4956311;28;20046;-86
2022/09/15 03:08:52;;;;;;;5.30;1.67;;;;;;;11.27;100.00;100570.50;4969160;28;20082;-87
2022/09/15 03:11:21;;;;;;;6.72;1.70;;;;;;;11.35;100.00;100554.41;4954828;28;20119;-87
2022/09/15 03:13:52;;;;;;;5.78;1.20;;;;;;;11.37;100.00;100557.84;4954512;28;20065;-87
2022/09/15 03:16:20;;;;;;;4.53;1.23;;;;;;;11.36;100.00;100556.13;4954404;28;20441;-87
2022/09/15 03:18:47;;;;;;;7.03;1.50;;;;;;;11.23;100.00;100552.34;4971060;28;20089;-87
2022/09/15 03:21:15;;;;;;;5.57;1.42;;;;;;;11.19;100.00;100555.09;4955412;28;20101;-87
2022/09/15 03:23:42;;;;;;;4.65;1.30;;;;;;;11.14;100.00;100558.84;4956139;28;20054;-88
2022/09/15 03:26:10;;;;;;;5.47;1.52;;;;;;;11.08;100.00;100557.31;4956693;28;20482;-86
2022/09/15 03:28:37;;;;;;;3.60;1.13;;;;;;;11.30;100.00;100553.78;4951626;28;20055;-86
2022/09/15 03:31:06;;;;;;;5.95;1.13;;;;;;;11.27;100.00;100557.38;4957062;28;20109;-86
2022/09/15 03:33:32;;;;;;;3.33;0.95;;;;;;;11.26;100.00;100542.59;4973391;28;20082;-87
2022/09/15 03:36:00;;;;;;;3.83;1.10;;;;;;;11.30;100.00;100554.63;4957157;28;20058;-86
2022/09/15 03:38:27;;;;;;;6.65;1.65;;;;;;;11.04;100.00;100558.38;4956323;28;20047;-86
2022/09/15 03:41:09;;;;;;;8.98;1.20;;;;;;;10.98;100.00;100558.63;4974567;28;20132;-87
2022/09/15 03:43:37;;;;;;;5.18;1.20;;;;;;;11.11;100.00;100564.22;4972570;28;20405;-87
2022/09/15 03:46:05;;;;;;;8.00;1.30;;;;;;;11.16;100.00;100551.75;4967091;28;20051;-87
2022/09/15 03:48:34;;;;;;;4.20;1.20;;;;;;;11.25;100.00;100558.38;4956306;28;20055;-85
2022/09/15 03:51:05;;;;;;;5.68;1.48;;;;;;;10.94;100.00;100531.72;4973368;28;20047;-86
2022/09/15 03:53:38;;;;;;;5.90;1.30;;;;;;;10.93;100.00;100548.34;4956976;28;20562;-86
2022/09/15 03:56:07;;;;;;;6.95;1.48;;;;;;;11.10;100.00;100563.38;4956599;28;20102;-86
2022/09/15 03:58:34;;;;;;;5.57;1.50;;;;;;;10.81;100.00;100549.69;4947101;28;20062;-86
2022/09/15 04:01:01;;;;;;;5.95;1.20;;;;;;;10.70;100.00;100538.81;4957102;28;20050;-87
2022/09/15 04:03:28;;;;;;;5.88;1.30;;;;;;;10.79;100.00;100546.28;4956609;28;20113;-87
2022/09/15 04:05:54;;;;;;;4.20;0.98;;;;;;;10.96;100.00;100557.81;4956559;28;20125;-87
2022/09/15 04:08:21;;;;;;;4.85;1.20;;;;;;;11.01;100.00;100556.75;4951482;29;20047;-86
2022/09/15 04:10:48;;;;;;;4.00;1.20;;;;;;;11.11;100.00;100564.22;4956416;28;20058;-86
2022/09/15 04:13:15;;;;;;;5.75;1.30;;;;;;;11.16;100.00;100581.44;4956377;28;20098;-87
2022/09/15 04:15:43;;;;;;;6.93;1.23;;;;;;;11.08;100.00;100566.94;4957081;28;20109;-87
2022/09/15 04:18:10;;;;;;;5.22;1.10;;;;;;;11.06;100.00;100560.94;4966730;28;21693;-87
2022/09/15 04:20:39;;;;;;;6.20;1.45;;;;;;;11.06;100.00;100566.16;4954115;28;20524;-87
2022/09/15 04:23:06;;;;;;;4.97;1.40;;;;;;;10.86;100.00;100567.00;4947705;29;20051;-87
2022/09/15 04:25:33;;;;;;;6.65;1.42;;;;;;;10.76;100.00;100570.00;4951526;28;20054;-87
2022/09/15 04:27:59;;;;;;;5.10;1.30;;;;;;;10.73;100.00;100546.56;4967345;28;20062;-87
2022/09/15 04:30:26;;;;;;;3.00;1.55;;;;;;;11.06;100.00;100579.28;4972475;28;20058;-87
2022/09/15 04:32:53;;;;;;;5.07;1.27;;;;;;;10.95;100.00;100545.66;4951551;28;20113;-87
2022/09/15 04:35:20;;;;;;;5.97;1.30;;;;;;;11.01;100.00;100567.22;4954858;28;20540;-87
2022/09/15 04:37:47;;;;;;;7.28;1.20;;;;;;;10.94;100.00;100578.00;4955196;28;20055;-88
2022/09/15 04:40:14;;;;;;;5.07;1.13;;;;;;;10.83;100.00;100565.34;4967278;28;20058;-86
2022/09/15 04:42:41;;;;;;;9.38;1.50;;;;;;;10.82;100.00;100579.38;4966127;28;20101;-87
2022/09/15 04:45:08;;;;;;;6.50;1.30;;;;;;;10.42;100.00;100521.63;4955978;28;20046;-87
2022/09/15 04:47:35;;;;;;;8.25;1.50;;;;;;;10.82;100.00;100555.81;4969816;28;20105;-86
2022/09/15 04:50:02;;;;;;;5.63;1.10;;;;;;;10.79;100.00;100561.16;4972937;28;20102;-87
2022/09/15 04:52:29;;;;;;;5.85;1.30;;;;;;;10.58;100.00;100560.28;4956368;28;20109;-86
2022/09/15 04:54:56;;;;;;;5.05;1.20;;;;;;;10.68;100.00;100563.34;4955672;28;20047;-87
2022/09/15 04:57:22;;;;;;;6.25;1.40;;;;;;;10.89;100.00;100583.44;4954419;28;20051;-86
2022/09/15 04:59:49;;;;;;;3.47;1.20;;;;;;;10.67;100.00;100562.50;4946058;28;20059;-86
2022/09/15 05:02:16;;;;;;;7.90;1.10;;;;;;;10.67;100.00;100565.13;4950143;28;20066;-86
2022/09/15 05:04:43;;;;;;;4.68;1.50;;;;;;;10.62;100.00;100562.72;4945878;28;20062;-89
2022/09/15 05:07:09;;;;;;;7.43;1.30;;;;;;;10.74;100.00;100566.59;4950389;28;20059;-86
2022/09/15 05:09:37;;;;;;;12.10;1.40;;;;;;;10.60;100.00;100561.91;4951521;29;20474;-87
2022/09/15 05:12:04;;;;;;;6.68;1.45;;;;;;;10.85;100.00;100574.00;4955303;28;20051;-87
2022/09/15 05:14:31;;;;;;;5.63;1.30;;;;;;;10.53;100.00;100564.84;4951511;28;20055;-88
2022/09/15 05:16:57;;;;;;;4.47;1.13;;;;;;;10.60;100.00;100582.84;4952914;28;20054;-87
2022/09/15 05:19:24;;;;;;;6.57;1.30;;;;;;;10.62;100.00;100577.56;4952564;28;20055;-88
2022/09/15 05:21:51;;;;;;;4.60;1.40;;;;;;;10.73;100.00;100590.22;4952824;28;20051;-86
2022/09/15 05:24:17;;;;;;;6.38;1.23;;;;;;;10.83;100.00;100587.16;4971670;28;20063;-86
2022/09/15 05:26:44;;;;;;;4.80;1.10;;;;;;;11.01;100.00;100584.69;4954139;28;20081;-86
2022/09/15 05:29:11;;;;;;;8.10;1.35;;;;;;;10.92;100.00;100593.78;4968283;28;20438;-87
2022/09/15 05:31:38;;;;;;;4.95;1.27;;;;;;;10.73;100.00;100574.50;4955441;28;20050;-88
2022/09/15 05:34:05;;;;;;;5.43;1.45;;;;;;;10.79;100.00;100584.75;4952108;28;20055;-88
2022/09/15 05:36:32;;;;;;;3.38;1.00;;;;;;;10.91;100.00;100589.47;4954356;28;20105;-87
2022/09/15 05:39:00;;;;;;;4.80;1.20;;;;;;;10.86;100.00;100593.19;4968733;28;20051;-88
2022/09/15 05:41:27;;;;;;;3.28;1.08;;;;;;;10.96;100.00;100599.75;4975790;28;20070;-88
2022/09/15 05:43:56;;;;;;;4.40;1.20;;;;;;;10.74;100.00;100561.34;4960980;28;20054;-89
2022/09/15 05:46:26;;;;;;;5.38;1.10;;;;;;;10.57;100.00;100558.56;4949611;28;20126;-90
2022/09/15 05:48:56;;;;;;;3.22;1.00;;;;;;;10.68;100.00;100579.94;4961454;28;20174;-91
2022/09/15 05:51:23;;;;;;;7.25;1.20;;;;;;;10.71;100.00;100606.00;4952400;28;20070;-88
2022/09/15 05:53:50;;;;;;;8.75;1.83;;;;;;;10.72;100.00;100606.84;4968903;28;20054;-91
2022/09/15 05:56:18;;;;;;;3.80;1.10;;;;;;;10.81;100.00;100615.19;4962275;28;20146;-88
2022/09/15 05:58:47;;;;;;;2.97;1.00;;;;;;;10.82;100.00;100600.34;4978006;28;20047;-89
2022/09/15 06:01:18;;;;;;;2.92;1.00;;;;;;;10.94;100.00;100614.69;4960433;28;20051;-89
2022/09/15 06:03:45;;;;;;;4.75;1.10;;;;;;;10.59;100.00;100568.06;4951272;29;20055;-91
2022/09/15 06:06:13;;;;;;;4.55;1.23;;;;;;;10.95;100.00;100613.78;4958606;28;20053;-89
2022/09/15 06:08:43;;;;;;;6.55;1.08;;;;;;;10.64;100.00;100602.78;4954509;28;20059;-89
2022/09/15 06:11:20;;;;;;;4.47;1.10;;;;;;;10.45;100.00;100559.94;4974361;28;20062;-89
2022/09/15 06:13:47;;;;;;;3.75;1.10;;;;;;;10.75;100.00;100611.97;4961234;28;20569;-89
2022/09/15 06:16:18;;;;;;;6.25;1.30;;;;;;;10.83;100.00;100618.56;4960564;28;20050;-89
2022/09/15 06:18:47;;;;;;;3.80;1.25;;;;;;;10.72;100.00;100591.16;4956723;28;20133;-90
2022/09/15 06:21:20;;;;;;;3.63;1.15;;;;;;;10.98;100.00;100634.63;4963321;28;20101;-89
2022/09/15 06:23:52;;;;;;;4.97;1.30;;;;;;;10.69;100.00;100604.34;4963379;28;20539;-88
2022/09/15 06:26:20;;;;;;;6.82;1.58;;;;;;;10.59;100.00;100581.16;4961261;28;20409;-89
2022/09/15 06:28:52;;;;;;;7.22;1.20;;;;;;;10.87;100.00;100602.75;4948164;28;20058;-89
2022/09/15 06:31:20;;;;;;;7.27;1.23;;;;;;;10.70;100.00;100561.56;4963054;28;20113;-88
2022/09/15 06:33:52;;;;;;;4.82;1.00;;;;;;;11.25;100.00;100610.78;4961642;28;20090;-88
2022/09/15 06:36:21;;;;;;;7.57;1.35;;;;;;;10.89;100.00;100579.97;4979907;28;20050;-88
2022/09/15 06:38:49;;;;;;;10.48;1.15;;;;;;;11.01;100.00;100608.25;4956444;28;20619;-87
2022/09/15 06:41:17;;;;;;;6.03;1.17;;;;;;;11.02;100.00;100578.53;4961991;28;20051;-88
2022/09/15 06:43:44;;;;;;;2.83;1.27;;;;;;;11.14;100.00;100587.66;4962545;28;20051;-89
2022/09/15 06:46:13;;;;;;;8.68;1.33;;;;;;;11.21;100.00;100610.06;4962662;28;20058;-88
2022/09/15 06:48:41;;;;;;;9.40;1.52;;;;;;;11.08;100.00;100569.56;4971914;28;20043;-89
2022/09/15 06:51:15;;;;;;;4.65;1.33;;;;;;;11.27;100.00;100578.34;4957186;29;20082;-87
2022/09/15 06:53:43;;;;;;;5.57;1.30;;;;;;;12.57;100.00;100602.25;4979318;28;20102;-88
2022/09/15 06:56:13;;;;;;;4.60;1.33;;;;;;;12.92;100.00;100620.69;4963643;28;20055;-91
2022/09/15 06:58:41;;;;;;;6.40;1.42;;;;;;;12.98;100.00;100573.09;4953506;28;20070;-89
2022/09/15 07:01:11;;;;;;;3.58;1.00;;;;;;;13.53;100.00;100587.84;4975767;28;20066;-89
2022/09/15 07:03:39;;;;;;;6.40;1.20;;;;;;;13.53;100.00;100605.38;4981784;28;20053;-89
2022/09/15 07:06:07;;;;;;;4.07;1.00;;;;;;;13.68;100.00;100578.28;4966082;28;20047;-90
2022/09/15 07:08:34;;;;;;;3.97;1.10;;;;;;;14.39;100.00;100621.84;4949058;28;20047;-89
2022/09/15 07:11:01;;;;;;;7.25;1.10;;;;;;;14.37;100.00;100586.84;4950656;28;20047;-89
2022/09/15 07:13:27;;;;;;;4.70;1.40;;;;;;;13.85;100.00;100586.13;4962720;28;20150;-89
2022/09/15 07:15:57;;;;;;;6.07;1.05;;;;;;;14.54;100.00;100597.28;4962216;28;20063;-88
2022/09/15 07:18:24;;;;;;;4.72;1.08;;;;;;;14.53;100.00;100560.50;4953882;28;20062;-88
2022/09/15 07:20:52;;;;;;;4.47;1.13;;;;;;;14.72;100.00;100565.59;4978609;28;20055;-88
2022/09/15 07:23:19;;;;;;;2.97;0.85;;;;;;;14.90;100.00;100575.06;4961439;28;20057;-89
2022/09/15 07:25:46;;;;;;;5.22;1.13;;;;;;;14.87;100.00;100600.75;4960876;28;20105;-88
2022/09/15 07:28:16;;;;;;;4.72;1.00;;;;;;;15.00;100.00;100578.88;4977757;28;20051;-88
2022/09/15 07:30:43;;;;;;;4.30;0.93;;;;;;;14.95;100.00;100588.00;4962119;28;20054;-89
2022/09/15 07:33:12;;;;;;;3.95;1.10;;;;;;;14.66;100.00;100560.66;4962257;28;20105;-88
2022/09/15 07:35:42;;;;;;;4.88;1.00;;;;;;;15.86;100.00;100616.88;4961164;28;20042;-89
2022/09/15 07:38:10;;;;;;;8.23;1.10;;;;;;;15.47;100.00;100602.50;4973062;28;20054;-87
2022/09/15 07:40:37;;;;;;;4.00;1.00;;;;;;;16.06;100.00;100605.94;4961385;28;20066;-89
2022/09/15 07:43:05;;;;;;;6.97;1.27;;;;;;;15.32;100.00;100601.66;4962565;28;20050;-86
2022/09/15 07:45:32;;;;;;;3.45;0.90;;;;;;;15.51;100.00;100635.66;4963368;28;20047;-88
2022/09/15 07:47:59;;;;;;;5.78;1.10;;;;;;;15.17;100.00;100574.38;4964019;28;20055;-88
2022/09/15 07:50:26;;;;;;;7.65;1.30;;;;;;;15.14;100.00;100646.63;4961260;28;20433;-89
2022/09/15 07:52:56;;;;;;;6.55;1.40;;;;;;;15.22;100.00;100621.59;4961587;28;20054;-89
2022/09/15 07:55:23;;;;;;;6.72;1.17;;;;;;;16.08;100.00;100648.09;4958504;28;20043;-88
2022/09/15 07:58:00;;;;;;;4.78;1.08;;;;;;;15.77;100.00;100614.81;4951866;28;20058;-88
2022/09/15 08:00:27;;;;;;;3.75;0.90;;;;;;;16.13;100.00;100624.91;4958116;28;20065;-89
2022/09/15 08:02:55;;;;;;;5.45;1.08;;;;;;;16.38;100.00;100637.41;4953127;28;20051;-89
2022/09/15 08:05:27;;;;;;;5.35;1.02;;;;;;;15.41;100.00;100629.28;4962136;28;20055;-87
2022/09/15 08:07:55;;;;;;;3.88;0.90;;;;;;;15.77;100.00;100593.69;4956580;28;20062;-88
2022/09/15 08:10:25;;;;;;;7.20;0.98;;;;;;;16.30;100.00;100640.50;4961257;28;20448;-88
2022/09/15 08:12:52;;;;;;;3.60;0.80;;;;;;;16.03;100.00;100621.97;4960330;28;20062;-88
2022/09/15 08:15:20;;;;;;;5.70;1.00;;;;;;;16.07;100.00;100601.50;4977253;28;20050;-87
2022/09/15 08:17:46;;;;;;;4.97;1.08;;;;;;;15.98;100.00;100639.06;4961059;28;20053;-88
2022/09/15 08:20:13;;;;;;;5.50;1.30;;;;;;;15.35;100.00;100604.94;4962894;28;20046;-88
2022/09/15 08:22:40;;;;;;;6.93;1.05;;;;;;;15.08;100.00;100625.03;4977204;28;20058;-88
2022/09/15 08:25:08;;;;;;;8.07;1.20;;;;;;;15.46;100.00;100650.97;4961431;28;20044;-88
2022/09/15 08:27:34;;;;;;;5.30;0.95;;;;;;;15.23;100.00;100626.78;4957838;28;20054;-88
2022/09/15 08:30:01;;;;;;;6.20;1.27;;;;;;;15.16;100.00;100647.38;4948098;28;20050;-89
2022/09/15 08:32:28;;;;;;;4.93;1.13;;;;;;;14.88;100.00;100613.00;4961792;28;20061;-88
2022/09/15 08:34:55;;;;;;;5.22;1.30;;;;;;;15.31;100.00;100600.78;4961448;28;20054;-88
2022/09/15 08:37:22;;;;;;;5.28;1.00;;;;;;;15.30;100.00;100646.56;4978136;28;20382;-88
2022/09/15 08:39:49;;;;;;;4.50;1.10;;;;;;;14.42;100.00;100614.63;4946846;28;20421;-88
2022/09/15 08:42:18;;;;;;;4.47;1.10;;;;;;;15.18;100.00;100613.84;4979715;28;20050;-89
2022/09/15 08:44:57;;;;;;;4.47;0.90;;;;;;;14.95;100.00;100631.00;4965283;28;20054;-87
2022/09/15 08:47:36;;;;;;;6.45;0.95;;;;;;;14.89;100.00;100647.19;4965096;28;20728;-89
2022/09/15 08:50:37;;;;;;;5.82;1.00;;;;;;;15.39;100.00;100661.00;4968770;28;20102;-88
2022/09/15 08:53:15;;;;;;;4.28;1.13;;;;;;;15.27;100.00;100652.03;4953669;28;20054;-89
2022/09/15 08:55:52;;;;;;;4.93;1.00;;;;;;;14.96;100.00;100650.31;4957433;28;20422;-89
2022/09/15 08:58:23;;;;;;;3.90;1.05;;;;;;;15.29;100.00;100659.84;4959255;28;20043;-87
2022/09/15 09:01:10;;;;;;;10.43;1.10;;;;;;;14.75;100.00;100663.78;4977750;28;20393;-85
2022/09/15 09:03:57;;;;;;;5.32;1.08;;;;;;;14.67;100.00;100592.19;4958300;28;20090;-87
2022/09/15 09:06:32;;;;;;;6.00;0.95;;;;;;;15.47;100.00;100669.31;4959899;28;20054;-85
2022/09/15 09:08:59;;;;;;;6.80;1.27;;;;;;;15.00;100.00;100649.22;4957697;28;20063;-87
2022/09/15 09:11:43;;;;;;;3.85;0.90;;;;;;;14.61;100.00;100626.81;4964521;28;20058;-90
2022/09/15 09:14:37;;;;;;;3.72;0.98;;;;;;;14.98;100.00;100653.72;4964174;28;20047;-90
2022/09/15 09:17:13;;;;;;;3.80;1.08;;;;;;;15.21;100.00;100672.63;4958085;28;20730;-91
2022/09/15 09:20:14;;;;;;;8.38;1.10;;;;;;;14.70;100.00;100675.53;4962105;28;20055;-88
2022/09/15 09:22:44;;;;;;;6.32;1.15;;;;;;;14.86;100.00;100647.34;4966191;28;20054;-89
2022/09/15 09:25:18;;;;;;;4.15;0.98;;;;;;;15.34;100.00;100677.09;4954561;29;20418;-88
2022/09/15 09:27:56;;;;;;;3.60;0.90;;;;;;;15.00;100.00;100630.75;4978478;28;20417;-88
2022/09/15 09:30:26;;;;;;;2.40;0.80;;;;;;;15.42;100.00;100666.09;4968845;28;20046;-91
2022/09/15 09:33:23;;;;;;;3.83;1.13;;;;;;;15.24;100.00;100628.47;4969898;28;20058;-91
2022/09/15 09:35:51;;;;;;;5.38;1.00;;;;;;;15.28;100.00;100661.66;4967419;28;20065;-90
2022/09/15 09:38:27;;;;;;;2.85;0.80;;;;;;;14.77;100.00;100654.00;4965010;28;20046;-90
2022/09/15 09:40:55;;;;;;;3.80;1.02;;;;;;;14.43;100.00;100658.47;4983827;28;20078;-91
2022/09/15 09:43:28;;;;;;;2.67;0.70;;;;;;;14.99;100.00;100681.78;4953554;28;20043;-91
2022/09/15 09:45:58;;;;;;;3.20;0.82;;;;;;;14.83;100.00;100660.69;4961691;28;20437;-90
2022/09/15 09:48:27;;;;;;;5.72;0.90;;;;;;;15.27;100.00;100659.94;4959656;28;20110;-91
2022/09/15 09:50:54;;;;;;;3.03;0.80;;;;;;;15.12;100.00;100647.63;4969728;28;20054;-91
2022/09/15 09:53:26;;;;;;;4.00;0.98;;;;;;;15.63;100.00;100700.06;4968671;28;20123;-89
2022/09/15 09:56:13;;;;;;;1.92;0.80;;;;;;;15.21;100.00;100654.16;4972426;28;20046;-89
2022/09/15 09:58:40;;;;;;;4.05;1.00;;;;;;;15.33;100.00;100685.97;4953626;28;20034;-91
2022/09/15 10:01:13;;;;;;;3.33;0.93;;;;;;;15.38;100.00;100690.97;4978777;28;20054;-91
2022/09/15 10:03:42;;;;;;;3.35;0.90;;;;;;;15.53;100.00;100703.25;4967405;28;20051;-90
2022/09/15 10:06:13;;;;;;;1.58;0.70;;;;;;;15.74;100.00;100660.69;4871652;28;3036765;-90
2022/09/15 10:09:02;;;;;;;2.85;0.98;;;;;;;15.49;100.00;100707.03;4966291;28;20062;-90
2022/09/15 10:11:56;;;;;;;4.22;1.00;;;;;;;15.00;100.00;100713.31;4967080;28;20078;-90
2022/09/15 10:14:35;;;;;;;3.08;1.00;;;;;;;14.78;100.00;100697.00;4948590;29;20051;-89
2022/09/15 10:17:21;;;;;;;3.20;0.80;;;;;;;14.91;100.00;100720.88;4967520;28;20047;-89
2022/09/15 10:19:53;;;;;;;4.30;0.90;;;;;;;14.58;100.00;100701.59;4960843;28;20110;-88
2022/09/15 10:22:20;;;;;;;3.60;0.90;;;;;;;14.07;100.00;100703.44;4963518;28;20062;-88
2022/09/15 10:24:48;;;;;;;2.75;0.80;;;;;;;14.10;100.00;100734.88;4963677;28;20141;-89
2022/09/15 10:27:26;;;;;;;3.10;0.82;;;;;;;14.08;100.00;100744.66;4958425;28;20093;-88
2022/09/15 10:29:53;;;;;;;2.42;0.98;;;;;;;13.59;100.00;100702.41;4959600;28;20088;-89
2022/09/15 10:32:27;;;;;;;2.13;1.00;;;;;;;13.98;100.00;100743.41;4960758;28;20101;-90
2022/09/15 10:35:01;;;;;;;2.25;0.80;;;;;;;14.20;100.00;100735.22;4958006;29;20050;-90
2022/09/15 10:38:10;;;;;;;2.03;0.80;;;;;;;14.22;100.00;100707.91;4961285;28;20074;-89
2022/09/15 10:40:43;;;;;;;5.65;1.20;;;;;;;14.24;100.00;100719.19;4952336;28;20050;-90
2022/09/15 10:43:25;;;;;;;6.60;1.67;;;;;;;14.14;100.00;100715.34;4961815;28;20109;-90
2022/09/15 10:46:04;;;;;;;6.38;1.63;;;;;;;14.42;100.00;100756.88;4961235;28;20456;-90
2022/09/15 10:49:03;;;;;;;4.30;1.10;;;;;;;14.69;100.00;100758.97;4953124;28;20058;-88
2022/09/15 10:51:36;;;;;;;5.90;1.30;;;;;;;14.53;100.00;100729.94;4959290;28;20445;-90
2022/09/15 10:54:22;;;;;;;;;;;;;;;14.56;100.00;100758.78;4960347;28;20066;-89
2022/09/15 10:56:57;;;;;;;5.40;1.20;;;;;;;13.71;100.00;100714.09;4956424;28;19934;-88
2022/09/15 10:59:55;;;;;;;5.40;1.00;;;;;;;12.93;100.00;100698.59;4961273;28;20129;-89
2022/09/15 11:02:45;;;;;;;5.72;1.30;;;;;;;13.75;100.00;100768.28;4942938;29;20058;-89
2022/09/15 11:05:44;;;;;;;6.97;1.75;;;;;;;13.40;100.00;100736.69;4960326;28;20043;-90
2022/09/15 11:08:17;;;;;;;3.45;1.30;;;;;;;13.74;100.00;100774.44;4966000;28;20051;-90
2022/09/15 11:10:55;;;;;;;3.70;1.15;;;;;;;13.70;100.00;100736.06;4962148;28;20054;-90
2022/09/15 11:13:40;;;;;;;7.43;1.40;;;;;;;14.28;100.00;100727.78;4962909;28;20054;-90
2022/09/15 11:16:25;;;;;;;7.90;1.88;;;;;;;14.41;100.00;100705.13;4960831;28;20049;-90
2022/09/15 11:19:12;;;;;;;8.82;1.27;;;;;;;14.33;100.00;100728.41;4968518;28;20051;-90
2022/09/15 11:21:44;;;;;;;7.00;1.25;;;;;;;14.37;100.00;100694.84;4950824;29;20052;-90
2022/09/15 11:24:49;;;;;;;4.38;1.27;;;;;;;14.71;100.00;100761.53;4960941;28;20051;-91
2022/09/15 11:27:22;;;;;;;10.10;1.83;;;;;;;14.94;100.00;100747.09;4960760;28;20066;-92
2022/09/15 11:29:58;;;;;;;;;;;;;;;15.35;100.00;100749.16;4961364;28;20409;-90
2022/09/15 11:32:31;;;;;;;6.05;1.50;;;;;;;15.74;100.00;100735.50;4962776;28;19929;-91
2022/09/15 11:35:07;;;;;;;;;;;;;;;16.12;100.00;100761.38;4963148;28;20401;-89
2022/09/15 11:37:44;;;;;;;8.80;2.35;;;;;;;15.16;100.00;100705.41;4964927;28;20334;-89
2022/09/15 11:40:21;;;;;;;9.57;1.25;;;;;;;15.25;100.00;100769.13;4941968;28;20492;-88